sensor_id;sensor_type;location;lat;lon;timestamp;pressure;altitude;pressure_sealevel;temperature;humidity
72959;BME280;60008;50.826;6.896;2023-04-06T00:01:00;101229.78;;;2.88;100.00
72959;BME280;60008;50.826;6.896;2023-04-06T00:03:45;101227.63;;;2.80;100.00
72959;BME280;60008;50.826;6.896;2023-04-06T00:06:30;101218.13;;;2.79;100.00
72959;BME280;60008;50.826;6.896;2023-04-06T00:09:16;101220.63;;;2.81;100.00
72959;BME280;60008;50.826;6.896;2023-04-06T00:12:01;101218.50;;;2.73;100.00
72959;BME280;60008;50.826;6.896;2023-04-06T00:14:46;101219.75;;;2.68;100.00
72959;BME280;60008;50.826;6.896;2023-04-06T00:17:31;101218.31;;;2.76;100.00
72959;BME280;60008;50.826;6.896;2023-04-06T00:20:16;101214.31;;;2.71;100.00
72959;BME280;60008;50.826;6.896;2023-04-06T00:23:01;101215.06;;;2.73;100.00
72959;BME280;60008;50.826;6.896;2023-04-06T00:25:46;101219.09;;;2.64;100.00
72959;BME280;60008;50.826;6.896;2023-04-06T00:28:31;101216.03;;;2.58;100.00
72959;BME280;60008;50.826;6.896;2023-04-06T00:31:16;101221.56;;;2.53;100.00
72959;BME280;60008;50.826;6.896;2023-04-06T00:34:02;101218.31;;;2.50;100.00
72959;BME280;60008;50.826;6.896;2023-04-06T00:36:46;101211.19;;;2.52;100.00
72959;BME280;60008;50.826;6.896;2023-04-06T00:39:31;101219.03;;;2.52;100.00
72959;BME280;60008;50.826;6.896;2023-04-06T00:42:17;101218.59;;;2.45;100.00
72959;BME280;60008;50.826;6.896;2023-04-06T00:45:10;101220.38;;;2.45;100.00
72959;BME280;60008;50.826;6.896;2023-04-06T00:47:55;101215.22;;;2.43;100.00
72959;BME280;60008;50.826;6.896;2023-04-06T00:50:41;101203.03;;;2.29;100.00
72959;BME280;60008;50.826;6.896;2023-04-06T00:53:26;101199.13;;;2.22;100.00
72959;BME280;60008;50.826;6.896;2023-04-06T00:56:11;101200.81;;;2.09;100.00
72959;BME280;60008;50.826;6.896;2023-04-06T00:58:56;101194.94;;;2.06;100.00
72959;BME280;60008;50.826;6.896;2023-04-06T01:01:41;101184.13;;;2.12;100.00
72959;BME280;60008;50.826;6.896;2023-04-06T01:04:27;101183.81;;;2.16;100.00
72959;BME280;60008;50.826;6.896;2023-04-06T01:07:12;101177.72;;;2.30;100.00
72959;BME280;60008;50.826;6.896;2023-04-06T01:09:57;101182.75;;;2.33;100.00
72959;BME280;60008;50.826;6.896;2023-04-06T01:12:42;101162.38;;;2.38;100.00
72959;BME280;60008;50.826;6.896;2023-04-06T01:15:28;101164.84;;;2.27;100.00
72959;BME280;60008;50.826;6.896;2023-04-06T01:18:13;101169.91;;;2.16;100.00
72959;BME280;60008;50.826;6.896;2023-04-06T01:20:58;101166.09;;;2.07;100.00
72959;BME280;60008;50.826;6.896;2023-04-06T01:23:45;101170.88;;;1.87;100.00
72959;BME280;60008;50.826;6.896;2023-04-06T01:26:31;101154.84;;;1.78;100.00
72959;BME280;60008;50.826;6.896;2023-04-06T01:29:16;101159.28;;;1.91;100.00
72959;BME280;60008;50.826;6.896;2023-04-06T01:32:02;101156.13;;;1.86;100.00
72959;BME280;60008;50.826;6.896;2023-04-06T01:34:47;101158.75;;;1.86;100.00
72959;BME280;60008;50.826;6.896;2023-04-06T01:37:32;101158.13;;;1.82;100.00
72959;BME280;60008;50.826;6.896;2023-04-06T01:40:17;101160.34;;;1.74;100.00
72959;BME280;60008;50.826;6.896;2023-04-06T01:43:02;101152.53;;;1.60;100.00
72959;BME280;60008;50.826;6.896;2023-04-06T01:45:47;101150.84;;;1.59;100.00
72959;BME280;60008;50.826;6.896;2023-04-06T01:48:32;101145.13;;;1.52;100.00
72959;BME280;60008;50.826;6.896;2023-04-06T01:51:17;101149.63;;;1.50;100.00
72959;BME280;60008;50.826;6.896;2023-04-06T01:54:02;101144.38;;;1.36;100.00
72959;BME280;60008;50.826;6.896;2023-04-06T01:56:47;101147.28;;;1.32;100.00
72959;BME280;60008;50.826;6.896;2023-04-06T01:59:35;101146.56;;;1.44;100.00
72959;BME280;60008;50.826;6.896;2023-04-06T02:02:19;101140.75;;;1.53;100.00
72959;BME280;60008;50.826;6.896;2023-04-06T02:05:05;101143.09;;;1.43;100.00
72959;BME280;60008;50.826;6.896;2023-04-06T02:07:50;101137.31;;;1.38;100.00
72959;BME280;60008;50.826;6.896;2023-04-06T02:10:36;101138.41;;;1.34;100.00
72959;BME280;60008;50.826;6.896;2023-04-06T02:13:21;101135.06;;;1.32;100.00
72959;BME280;60008;50.826;6.896;2023-04-06T02:16:06;101143.53;;;1.22;100.00
72959;BME280;60008;50.826;6.896;2023-04-06T02:18:51;101143.56;;;1.36;100.00
72959;BME280;60008;50.826;6.896;2023-04-06T02:21:36;101137.00;;;1.29;100.00
72959;BME280;60008;50.826;6.896;2023-04-06T02:24:21;101134.69;;;1.24;100.00
72959;BME280;60008;50.826;6.896;2023-04-06T02:27:06;101133.75;;;1.39;100.00
72959;BME280;60008;50.826;6.896;2023-04-06T02:29:51;101133.84;;;1.38;100.00
72959;BME280;60008;50.826;6.896;2023-04-06T02:32:36;101131.34;;;1.22;100.00
72959;BME280;60008;50.826;6.896;2023-04-06T02:35:21;101131.03;;;1.12;100.00
72959;BME280;60008;50.826;6.896;2023-04-06T02:38:06;101138.19;;;1.09;100.00
72959;BME280;60008;50.826;6.896;2023-04-06T02:40:51;101133.34;;;1.03;100.00
72959;BME280;60008;50.826;6.896;2023-04-06T02:43:36;101131.44;;;0.91;100.00
72959;BME280;60008;50.826;6.896;2023-04-06T02:46:21;101125.22;;;0.93;100.00
72959;BME280;60008;50.826;6.896;2023-04-06T02:49:07;101128.78;;;0.92;100.00
72959;BME280;60008;50.826;6.896;2023-04-06T02:51:52;101129.59;;;0.93;100.00
72959;BME280;60008;50.826;6.896;2023-04-06T02:54:37;101127.25;;;0.88;100.00
72959;BME280;60008;50.826;6.896;2023-04-06T02:57:22;101126.56;;;0.71;100.00
72959;BME280;60008;50.826;6.896;2023-04-06T03:00:07;101124.94;;;0.68;100.00
72959;BME280;60008;50.826;6.896;2023-04-06T03:02:52;101130.09;;;0.70;100.00
72959;BME280;60008;50.826;6.896;2023-04-06T03:05:37;101124.94;;;0.68;100.00
72959;BME280;60008;50.826;6.896;2023-04-06T03:08:22;101126.91;;;0.65;100.00
72959;BME280;60008;50.826;6.896;2023-04-06T03:11:07;101126.75;;;0.82;100.00
72959;BME280;60008;50.826;6.896;2023-04-06T03:13:52;101124.41;;;1.07;100.00
72959;BME280;60008;50.826;6.896;2023-04-06T03:16:37;101124.03;;;1.13;100.00
72959;BME280;60008;50.826;6.896;2023-04-06T03:19:22;101114.81;;;1.07;100.00
72959;BME280;60008;50.826;6.896;2023-04-06T03:22:07;101112.66;;;1.00;100.00
72959;BME280;60008;50.826;6.896;2023-04-06T03:24:52;101113.88;;;1.08;100.00
72959;BME280;60008;50.826;6.896;2023-04-06T03:27:37;101116.03;;;1.16;100.00
72959;BME280;60008;50.826;6.896;2023-04-06T03:30:22;101117.13;;;1.12;100.00
72959;BME280;60008;50.826;6.896;2023-04-06T03:33:07;101117.66;;;0.89;100.00
72959;BME280;60008;50.826;6.896;2023-04-06T03:35:53;101125.72;;;0.70;100.00
72959;BME280;60008;50.826;6.896;2023-04-06T03:38:38;101123.13;;;0.70;100.00
72959;BME280;60008;50.826;6.896;2023-04-06T03:41:25;101121.25;;;0.72;100.00
72959;BME280;60008;50.826;6.896;2023-04-06T03:44:10;101128.28;;;0.56;100.00
72959;BME280;60008;50.826;6.896;2023-04-06T03:46:55;101127.44;;;0.55;100.00
72959;BME280;60008;50.826;6.896;2023-04-06T03:49:40;101123.22;;;0.53;100.00
72959;BME280;60008;50.826;6.896;2023-04-06T03:52:25;101126.50;;;0.56;100.00
72959;BME280;60008;50.826;6.896;2023-04-06T03:55:10;101119.13;;;0.49;100.00
72959;BME280;60008;50.826;6.896;2023-04-06T03:57:55;101119.03;;;0.50;100.00
72959;BME280;60008;50.826;6.896;2023-04-06T04:00:40;101114.09;;;0.46;100.00
72959;BME280;60008;50.826;6.896;2023-04-06T04:03:25;101112.94;;;0.66;100.00
72959;BME280;60008;50.826;6.896;2023-04-06T04:06:12;101117.28;;;0.51;100.00
72959;BME280;60008;50.826;6.896;2023-04-06T04:08:57;101119.66;;;0.40;100.00
72959;BME280;60008;50.826;6.896;2023-04-06T04:11:41;101124.00;;;0.39;100.00
72959;BME280;60008;50.826;6.896;2023-04-06T04:14:27;101123.16;;;0.39;100.00
72959;BME280;60008;50.826;6.896;2023-04-06T04:17:11;101124.34;;;0.33;100.00
72959;BME280;60008;50.826;6.896;2023-04-06T04:19:56;101127.13;;;0.30;100.00
72959;BME280;60008;50.826;6.896;2023-04-06T04:22:41;101116.88;;;0.27;100.00
72959;BME280;60008;50.826;6.896;2023-04-06T04:25:27;101119.25;;;0.32;100.00
72959;BME280;60008;50.826;6.896;2023-04-06T04:28:11;101118.38;;;0.31;100.00
72959;BME280;60008;50.826;6.896;2023-04-06T04:30:57;101126.38;;;0.28;100.00
72959;BME280;60008;50.826;6.896;2023-04-06T04:33:41;101124.53;;;0.30;100.00
72959;BME280;60008;50.826;6.896;2023-04-06T04:36:27;101127.97;;;0.31;100.00
72959;BME280;60008;50.826;6.896;2023-04-06T04:39:11;101126.03;;;0.34;100.00
72959;BME280;60008;50.826;6.896;2023-04-06T04:41:57;101126.28;;;0.45;100.00
72959;BME280;60008;50.826;6.896;2023-04-06T04:44:41;101122.94;;;0.43;100.00
72959;BME280;60008;50.826;6.896;2023-04-06T04:47:26;101114.78;;;0.34;100.00
72959;BME280;60008;50.826;6.896;2023-04-06T04:50:11;101120.84;;;0.34;100.00
72959;BME280;60008;50.826;6.896;2023-04-06T04:52:56;101120.72;;;0.36;100.00
72959;BME280;60008;50.826;6.896;2023-04-06T04:55:41;101129.00;;;0.28;100.00
72959;BME280;60008;50.826;6.896;2023-04-06T04:58:26;101130.91;;;0.25;100.00
72959;BME280;60008;50.826;6.896;2023-04-06T05:01:11;101134.97;;;0.15;100.00
72959;BME280;60008;50.826;6.896;2023-04-06T05:03:56;101133.88;;;0.19;100.00
72959;BME280;60008;50.826;6.896;2023-04-06T05:06:41;101138.41;;;0.15;100.00
72959;BME280;60008;50.826;6.896;2023-04-06T05:09:26;101129.31;;;0.22;100.00
72959;BME280;60008;50.826;6.896;2023-04-06T05:12:11;101141.16;;;0.28;100.00
72959;BME280;60008;50.826;6.896;2023-04-06T05:14:56;101130.56;;;0.31;100.00
72959;BME280;60008;50.826;6.896;2023-04-06T05:17:41;101134.19;;;0.28;100.00
72959;BME280;60008;50.826;6.896;2023-04-06T05:20:27;101135.81;;;0.60;100.00
72959;BME280;60008;50.826;6.896;2023-04-06T05:23:12;101134.41;;;0.55;100.00
72959;BME280;60008;50.826;6.896;2023-04-06T05:25:57;101136.09;;;0.56;100.00
72959;BME280;60008;50.826;6.896;2023-04-06T05:28:42;101140.28;;;0.58;100.00
72959;BME280;60008;50.826;6.896;2023-04-06T05:31:29;101149.53;;;0.64;100.00
72959;BME280;60008;50.826;6.896;2023-04-06T05:34:14;101135.47;;;0.67;100.00
72959;BME280;60008;50.826;6.896;2023-04-06T05:36:59;101136.38;;;0.81;100.00
72959;BME280;60008;50.826;6.896;2023-04-06T05:39:45;101136.78;;;0.89;100.00
72959;BME280;60008;50.826;6.896;2023-04-06T05:42:37;101141.00;;;1.06;100.00
72959;BME280;60008;50.826;6.896;2023-04-06T05:45:22;101135.97;;;1.17;100.00
72959;BME280;60008;50.826;6.896;2023-04-06T05:48:08;101140.94;;;1.36;100.00
72959;BME280;60008;50.826;6.896;2023-04-06T05:50:52;101137.03;;;1.43;100.00
72959;BME280;60008;50.826;6.896;2023-04-06T05:53:40;101129.56;;;1.51;100.00
72959;BME280;60008;50.826;6.896;2023-04-06T05:56:25;101142.69;;;1.77;100.00
72959;BME280;60008;50.826;6.896;2023-04-06T05:59:11;101136.06;;;1.86;100.00
72959;BME280;60008;50.826;6.896;2023-04-06T06:01:55;101128.78;;;1.91;100.00
72959;BME280;60008;50.826;6.896;2023-04-06T06:04:40;101133.53;;;1.99;100.00
72959;BME280;60008;50.826;6.896;2023-04-06T06:07:25;101130.72;;;2.02;100.00
72959;BME280;60008;50.826;6.896;2023-04-06T06:10:11;101126.03;;;2.07;100.00
72959;BME280;60008;50.826;6.896;2023-04-06T06:12:56;101122.19;;;2.12;100.00
72959;BME280;60008;50.826;6.896;2023-04-06T06:15:41;101120.59;;;2.24;100.00
72959;BME280;60008;50.826;6.896;2023-04-06T06:18:26;101112.88;;;2.35;100.00
72959;BME280;60008;50.826;6.896;2023-04-06T06:21:11;101119.38;;;2.42;100.00
72959;BME280;60008;50.826;6.896;2023-04-06T06:23:57;101108.97;;;2.55;100.00
72959;BME280;60008;50.826;6.896;2023-04-06T06:26:42;101115.19;;;2.66;100.00
72959;BME280;60008;50.826;6.896;2023-04-06T06:29:27;101111.75;;;2.78;100.00
72959;BME280;60008;50.826;6.896;2023-04-06T06:32:12;101109.50;;;2.47;100.00
72959;BME280;60008;50.826;6.896;2023-04-06T06:34:57;101119.41;;;2.81;100.00
72959;BME280;60008;50.826;6.896;2023-04-06T06:37:42;101119.34;;;2.95;100.00
72959;BME280;60008;50.826;6.896;2023-04-06T06:40:27;101112.09;;;2.86;100.00
72959;BME280;60008;50.826;6.896;2023-04-06T06:43:13;101110.91;;;2.78;100.00
72959;BME280;60008;50.826;6.896;2023-04-06T06:45:58;101116.31;;;3.27;100.00
72959;BME280;60008;50.826;6.896;2023-04-06T06:48:43;101121.97;;;3.58;100.00
72959;BME280;60008;50.826;6.896;2023-04-06T06:51:28;101113.25;;;3.58;100.00
72959;BME280;60008;50.826;6.896;2023-04-06T06:54:13;101111.63;;;3.81;100.00
72959;BME280;60008;50.826;6.896;2023-04-06T06:56:59;101099.28;;;4.06;100.00
72959;BME280;60008;50.826;6.896;2023-04-06T06:59:45;101102.19;;;4.38;100.00
72959;BME280;60008;50.826;6.896;2023-04-06T07:02:30;101102.94;;;4.40;100.00
72959;BME280;60008;50.826;6.896;2023-04-06T07:05:15;101096.38;;;4.46;100.00
72959;BME280;60008;50.826;6.896;2023-04-06T07:08:07;101088.34;;;4.60;100.00
72959;BME280;60008;50.826;6.896;2023-04-06T07:10:52;101095.19;;;4.73;100.00
72959;BME280;60008;50.826;6.896;2023-04-06T07:13:38;101089.38;;;4.92;100.00
72959;BME280;60008;50.826;6.896;2023-04-06T07:16:22;101092.22;;;4.78;100.00
72959;BME280;60008;50.826;6.896;2023-04-06T07:19:07;101086.72;;;4.81;100.00
72959;BME280;60008;50.826;6.896;2023-04-06T07:21:54;101083.03;;;5.29;100.00
72959;BME280;60008;50.826;6.896;2023-04-06T07:24:39;101083.50;;;5.46;100.00
72959;BME280;60008;50.826;6.896;2023-04-06T07:27:24;101080.25;;;5.42;100.00
72959;BME280;60008;50.826;6.896;2023-04-06T07:30:09;101085.88;;;5.37;100.00
72959;BME280;60008;50.826;6.896;2023-04-06T07:32:55;101084.44;;;5.67;100.00
72959;BME280;60008;50.826;6.896;2023-04-06T07:35:40;101082.66;;;6.32;100.00
72959;BME280;60008;50.826;6.896;2023-04-06T07:38:25;101084.03;;;6.47;100.00
72959;BME280;60008;50.826;6.896;2023-04-06T07:41:10;101080.66;;;6.56;100.00
72959;BME280;60008;50.826;6.896;2023-04-06T07:43:56;101078.41;;;6.93;100.00
72959;BME280;60008;50.826;6.896;2023-04-06T07:46:41;101085.97;;;6.98;100.00
72959;BME280;60008;50.826;6.896;2023-04-06T07:49:25;101080.88;;;7.06;100.00
72959;BME280;60008;50.826;6.896;2023-04-06T07:52:10;101078.88;;;7.19;100.00
72959;BME280;60008;50.826;6.896;2023-04-06T07:54:55;101078.72;;;7.20;100.00
72959;BME280;60008;50.826;6.896;2023-04-06T07:57:40;101081.16;;;7.33;100.00
72959;BME280;60008;50.826;6.896;2023-04-06T08:00:25;101074.66;;;7.37;100.00
72959;BME280;60008;50.826;6.896;2023-04-06T08:03:10;101075.72;;;7.55;100.00
72959;BME280;60008;50.826;6.896;2023-04-06T08:05:56;101068.56;;;7.86;100.00
72959;BME280;60008;50.826;6.896;2023-04-06T08:08:42;101071.25;;;7.96;100.00
72959;BME280;60008;50.826;6.896;2023-04-06T08:11:27;101075.94;;;7.83;100.00
72959;BME280;60008;50.826;6.896;2023-04-06T08:14:12;101067.09;;;8.03;100.00
72959;BME280;60008;50.826;6.896;2023-04-06T08:16:57;101066.59;;;8.37;100.00
72959;BME280;60008;50.826;6.896;2023-04-06T08:19:43;101070.91;;;8.29;99.81
72959;BME280;60008;50.826;6.896;2023-04-06T08:22:29;101062.88;;;8.50;99.52
72959;BME280;60008;50.826;6.896;2023-04-06T08:25:13;101065.53;;;7.41;100.00
72959;BME280;60008;50.826;6.896;2023-04-06T08:27:59;101052.56;;;8.37;100.00
72959;BME280;60008;50.826;6.896;2023-04-06T08:30:44;101054.94;;;8.50;97.04
72959;BME280;60008;50.826;6.896;2023-04-06T08:33:29;101051.06;;;9.19;93.88
72959;BME280;60008;50.826;6.896;2023-04-06T08:36:14;101053.03;;;9.17;90.82
72959;BME280;60008;50.826;6.896;2023-04-06T08:39:00;101053.63;;;9.75;90.32
72959;BME280;60008;50.826;6.896;2023-04-06T08:41:45;101051.44;;;9.88;83.75
72959;BME280;60008;50.826;6.896;2023-04-06T08:44:31;101049.97;;;10.74;83.09
72959;BME280;60008;50.826;6.896;2023-04-06T08:47:17;101046.03;;;10.78;78.30
72959;BME280;60008;50.826;6.896;2023-04-06T08:50:07;101051.47;;;10.94;79.83
72959;BME280;60008;50.826;6.896;2023-04-06T08:52:52;101049.13;;;11.51;75.32
72959;BME280;60008;50.826;6.896;2023-04-06T08:55:38;101041.44;;;9.82;80.91
72959;BME280;60008;50.826;6.896;2023-04-06T08:58:24;101041.41;;;11.31;77.38
72959;BME280;60008;50.826;6.896;2023-04-06T09:01:27;101040.66;;;11.81;77.54
72959;BME280;60008;50.826;6.896;2023-04-06T09:04:12;101035.09;;;11.66;76.01
72959;BME280;60008;50.826;6.896;2023-04-06T09:06:59;101044.75;;;11.42;71.12
72959;BME280;60008;50.826;6.896;2023-04-06T09:09:44;101042.91;;;11.00;74.14
72959;BME280;60008;50.826;6.896;2023-04-06T09:12:33;101042.19;;;10.55;77.90
72959;BME280;60008;50.826;6.896;2023-04-06T09:15:19;101040.88;;;11.28;80.15
72959;BME280;60008;50.826;6.896;2023-04-06T09:18:08;101038.59;;;12.09;77.13
72959;BME280;60008;50.826;6.896;2023-04-06T09:21:04;101039.91;;;10.60;77.69
72959;BME280;60008;50.826;6.896;2023-04-06T09:24:00;101037.94;;;11.05;73.36
72959;BME280;60008;50.826;6.896;2023-04-06T09:26:46;101039.44;;;11.08;74.88
72959;BME280;60008;50.826;6.896;2023-04-06T09:29:31;101030.66;;;12.33;73.78
72959;BME280;60008;50.826;6.896;2023-04-06T09:32:16;101035.63;;;12.20;68.72
72959;BME280;60008;50.826;6.896;2023-04-06T09:35:09;101024.47;;;12.97;64.68
72959;BME280;60008;50.826;6.896;2023-04-06T09:37:53;101028.81;;;12.74;66.53
72959;BME280;60008;50.826;6.896;2023-04-06T09:40:50;101022.28;;;11.96;70.05
72959;BME280;60008;50.826;6.896;2023-04-06T09:43:46;101025.06;;;13.39;66.38
72959;BME280;60008;50.826;6.896;2023-04-06T09:46:35;101017.94;;;13.70;61.97
72959;BME280;60008;50.826;6.896;2023-04-06T09:49:39;101018.47;;;13.19;65.62
72959;BME280;60008;50.826;6.896;2023-04-06T09:52:27;101017.78;;;14.25;59.85
72959;BME280;60008;50.826;6.896;2023-04-06T09:55:23;101016.34;;;12.90;65.46
72959;BME280;60008;50.826;6.896;2023-04-06T09:58:13;101011.41;;;13.42;65.58
72959;BME280;60008;50.826;6.896;2023-04-06T10:01:10;101004.97;;;13.98;62.57
72959;BME280;60008;50.826;6.896;2023-04-06T10:06:50;101003.22;;;14.36;57.70
72959;BME280;60008;50.826;6.896;2023-04-06T10:09:37;101007.38;;;15.57;55.50
72959;BME280;60008;50.826;6.896;2023-04-06T10:12:22;101005.41;;;14.32;56.14
72959;BME280;60008;50.826;6.896;2023-04-06T10:15:08;100996.69;;;13.54;56.52
72959;BME280;60008;50.826;6.896;2023-04-06T10:17:53;101005.09;;;14.05;60.32
72959;BME280;60008;50.826;6.896;2023-04-06T10:20:51;100999.53;;;13.14;60.10
72959;BME280;60008;50.826;6.896;2023-04-06T10:24:00;101005.19;;;12.87;56.72
72959;BME280;60008;50.826;6.896;2023-04-06T10:27:03;101004.84;;;13.61;54.49
72959;BME280;60008;50.826;6.896;2023-04-06T10:29:49;101005.88;;;13.52;53.33
72959;BME280;60008;50.826;6.896;2023-04-06T10:32:38;101002.91;;;13.47;52.39
72959;BME280;60008;50.826;6.896;2023-04-06T10:35:23;101004.69;;;13.54;51.50
72959;BME280;60008;50.826;6.896;2023-04-06T10:38:09;101000.44;;;13.37;51.59
72959;BME280;60008;50.826;6.896;2023-04-06T10:41:03;100999.19;;;13.64;52.72
72959;BME280;60008;50.826;6.896;2023-04-06T10:43:56;100996.31;;;13.65;53.13
72959;BME280;60008;50.826;6.896;2023-04-06T10:46:52;100991.50;;;13.92;51.71
72959;BME280;60008;50.826;6.896;2023-04-06T10:49:37;100984.47;;;14.21;51.04
72959;BME280;60008;50.826;6.896;2023-04-06T10:52:22;100994.19;;;13.14;54.41
72959;BME280;60008;50.826;6.896;2023-04-06T10:55:08;100988.09;;;12.81;55.44
72959;BME280;60008;50.826;6.896;2023-04-06T10:57:55;100996.22;;;12.88;55.07
72959;BME280;60008;50.826;6.896;2023-04-06T11:00:47;100996.06;;;12.89;55.80
72959;BME280;60008;50.826;6.896;2023-04-06T11:03:45;100996.38;;;12.94;55.48
72959;BME280;60008;50.826;6.896;2023-04-06T11:06:31;100998.63;;;13.30;55.77
72959;BME280;60008;50.826;6.896;2023-04-06T11:09:27;100987.00;;;13.31;53.98
72959;BME280;60008;50.826;6.896;2023-04-06T11:12:26;100984.91;;;12.86;54.65
72959;BME280;60008;50.826;6.896;2023-04-06T11:15:12;100983.34;;;13.24;54.34
72959;BME280;60008;50.826;6.896;2023-04-06T11:17:57;100986.00;;;13.24;54.96
72959;BME280;60008;50.826;6.896;2023-04-06T11:20:47;100989.00;;;13.29;56.79
72959;BME280;60008;50.826;6.896;2023-04-06T11:23:32;100987.38;;;13.58;53.07
72959;BME280;60008;50.826;6.896;2023-04-06T11:26:18;100987.50;;;13.65;53.15
72959;BME280;60008;50.826;6.896;2023-04-06T11:29:02;100983.50;;;13.69;52.89
72959;BME280;60008;50.826;6.896;2023-04-06T11:32:06;100978.66;;;13.64;54.17
72959;BME280;60008;50.826;6.896;2023-04-06T11:34:52;100983.56;;;13.53;54.15
72959;BME280;60008;50.826;6.896;2023-04-06T11:37:37;100980.22;;;13.51;54.92
72959;BME280;60008;50.826;6.896;2023-04-06T11:40:22;100980.00;;;13.68;55.63
72959;BME280;60008;50.826;6.896;2023-04-06T11:43:11;100982.34;;;13.63;56.08
72959;BME280;60008;50.826;6.896;2023-04-06T11:46:00;100977.56;;;13.51;56.96
72959;BME280;60008;50.826;6.896;2023-04-06T11:48:47;100980.13;;;13.44;54.35
72959;BME280;60008;50.826;6.896;2023-04-06T11:51:35;100976.59;;;13.52;55.55
72959;BME280;60008;50.826;6.896;2023-04-06T11:54:37;100978.81;;;13.71;55.13
72959;BME280;60008;50.826;6.896;2023-04-06T11:57:22;100981.78;;;13.76;52.03
72959;BME280;60008;50.826;6.896;2023-04-06T12:00:10;100988.88;;;13.84;52.51
72959;BME280;60008;50.826;6.896;2023-04-06T12:02:56;100980.00;;;13.68;52.10
72959;BME280;60008;50.826;6.896;2023-04-06T12:05:41;100968.19;;;13.94;50.71
72959;BME280;60008;50.826;6.896;2023-04-06T12:08:26;100972.22;;;14.12;52.45
72959;BME280;60008;50.826;6.896;2023-04-06T12:11:11;100976.78;;;14.04;51.88
72959;BME280;60008;50.826;6.896;2023-04-06T12:13:56;100973.56;;;14.08;52.12
72959;BME280;60008;50.826;6.896;2023-04-06T12:16:41;100967.06;;;13.57;54.46
72959;BME280;60008;50.826;6.896;2023-04-06T12:19:27;100966.34;;;13.33;55.52
72959;BME280;60008;50.826;6.896;2023-04-06T12:22:13;100971.31;;;13.36;56.07
72959;BME280;60008;50.826;6.896;2023-04-06T12:24:58;100966.66;;;13.38;55.07
72959;BME280;60008;50.826;6.896;2023-04-06T12:27:43;100970.69;;;13.34;56.33
72959;BME280;60008;50.826;6.896;2023-04-06T12:30:28;100970.31;;;13.45;54.38
72959;BME280;60008;50.826;6.896;2023-04-06T12:33:13;100966.88;;;13.59;56.22
72959;BME280;60008;50.826;6.896;2023-04-06T12:35:58;100967.75;;;13.51;56.65
72959;BME280;60008;50.826;6.896;2023-04-06T12:38:43;100967.22;;;13.64;55.56
72959;BME280;60008;50.826;6.896;2023-04-06T12:41:30;100967.34;;;13.40;56.76
72959;BME280;60008;50.826;6.896;2023-04-06T12:44:15;100974.06;;;13.20;58.12
72959;BME280;60008;50.826;6.896;2023-04-06T12:47:00;100973.56;;;13.00;59.42
72959;BME280;60008;50.826;6.896;2023-04-06T12:49:46;100969.75;;;13.10;58.92
72959;BME280;60008;50.826;6.896;2023-04-06T12:52:31;100959.44;;;13.07;59.34
72959;BME280;60008;50.826;6.896;2023-04-06T12:55:16;100971.25;;;13.13;62.48
72959;BME280;60008;50.826;6.896;2023-04-06T12:58:01;100973.72;;;13.23;60.57
72959;BME280;60008;50.826;6.896;2023-04-06T13:00:47;100976.47;;;12.82;62.96
72959;BME280;60008;50.826;6.896;2023-04-06T13:03:33;100973.94;;;12.81;64.52
72959;BME280;60008;50.826;6.896;2023-04-06T13:06:18;100972.31;;;12.72;64.58
72959;BME280;60008;50.826;6.896;2023-04-06T13:09:03;100967.47;;;12.75;63.49
72959;BME280;60008;50.826;6.896;2023-04-06T13:11:50;100966.13;;;12.87;64.41
72959;BME280;60008;50.826;6.896;2023-04-06T13:14:35;100965.81;;;12.90;62.60
72959;BME280;60008;50.826;6.896;2023-04-06T13:17:20;100962.81;;;12.85;66.31
72959;BME280;60008;50.826;6.896;2023-04-06T13:20:06;100969.47;;;12.73;63.94
72959;BME280;60008;50.826;6.896;2023-04-06T13:22:51;100973.66;;;12.60;65.26
72959;BME280;60008;50.826;6.896;2023-04-06T13:25:36;100979.81;;;12.44;67.86
72959;BME280;60008;50.826;6.896;2023-04-06T13:28:21;100987.41;;;12.07;73.55
72959;BME280;60008;50.826;6.896;2023-04-06T13:31:06;101000.78;;;11.31;81.38
72959;BME280;60008;50.826;6.896;2023-04-06T13:33:51;101007.72;;;11.24;87.90
72959;BME280;60008;50.826;6.896;2023-04-06T13:36:36;100999.22;;;11.20;89.48
72959;BME280;60008;50.826;6.896;2023-04-06T13:39:21;101006.78;;;11.33;89.40
72959;BME280;60008;50.826;6.896;2023-04-06T13:42:06;100996.34;;;11.73;90.59
72959;BME280;60008;50.826;6.896;2023-04-06T13:44:51;100988.72;;;11.78;90.58
72959;BME280;60008;50.826;6.896;2023-04-06T13:47:36;100991.22;;;11.88;92.06
72959;BME280;60008;50.826;6.896;2023-04-06T13:50:22;101000.16;;;11.71;95.68
72959;BME280;60008;50.826;6.896;2023-04-06T13:53:07;100999.19;;;11.46;96.26
72959;BME280;60008;50.826;6.896;2023-04-06T13:55:53;101001.78;;;11.30;99.68
72959;BME280;60008;50.826;6.896;2023-04-06T13:58:38;100999.56;;;11.25;100.00
72959;BME280;60008;50.826;6.896;2023-04-06T14:01:23;100997.81;;;11.34;100.00
72959;BME280;60008;50.826;6.896;2023-04-06T14:04:09;101001.28;;;11.34;100.00
72959;BME280;60008;50.826;6.896;2023-04-06T14:06:55;100997.84;;;11.08;100.00
72959;BME280;60008;50.826;6.896;2023-04-06T14:09:40;101006.75;;;10.99;100.00
72959;BME280;60008;50.826;6.896;2023-04-06T14:12:25;101012.44;;;10.61;100.00
72959;BME280;60008;50.826;6.896;2023-04-06T14:15:12;101004.41;;;10.70;100.00
72959;BME280;60008;50.826;6.896;2023-04-06T14:17:57;100999.34;;;10.85;100.00
72959;BME280;60008;50.826;6.896;2023-04-06T14:20:42;101001.69;;;10.88;100.00
72959;BME280;60008;50.826;6.896;2023-04-06T14:23:28;101004.34;;;10.62;100.00
72959;BME280;60008;50.826;6.896;2023-04-06T14:26:13;100996.38;;;10.88;100.00
72959;BME280;60008;50.826;6.896;2023-04-06T14:28:59;100994.53;;;10.81;100.00
72959;BME280;60008;50.826;6.896;2023-04-06T14:31:47;100994.44;;;10.98;100.00